createdAt,value
2023-05-06T00:03:17.324Z,14.93
2023-05-06T00:08:19.167Z,15.20
2023-05-06T00:13:23.126Z,17.33
2023-05-06T00:18:24.900Z,18.98
2023-05-06T00:23:26.706Z,20.20
2023-05-06T00:28:33.221Z,16.48
2023-05-06T00:33:37.213Z,18.02
2023-05-06T00:38:43.750Z,17.95
2023-05-06T00:43:45.650Z,17.85
2023-05-06T00:48:49.866Z,17.95
2023-05-06T00:53:51.696Z,18.02
2023-05-06T00:58:54.441Z,18.60
2023-05-06T01:03:58.661Z,23.02
2023-05-06T01:09:20.976Z,19.35
2023-05-06T01:14:39.216Z,18.58
2023-05-06T01:19:53.525Z,19.75
2023-05-06T01:24:55.359Z,22.00
2023-05-06T01:29:58.184Z,22.90
2023-05-06T01:35:15.926Z,18.95
2023-05-06T01:40:18.056Z,20.60
2023-05-06T01:45:23.281Z,17.10
2023-05-06T01:50:25.992Z,16.05
2023-05-06T01:55:32.208Z,20.20
2023-05-06T02:00:38.203Z,20.38
2023-05-06T02:05:42.671Z,21.90
2023-05-06T02:10:48.054Z,20.30
2023-05-06T02:15:56.900Z,19.92
2023-05-06T02:21:03.835Z,20.67
2023-05-06T02:26:08.492Z,27.90
2023-05-06T02:31:14.464Z,21.10
2023-05-06T02:36:18.326Z,18.27
2023-05-06T02:41:22.363Z,19.77
2023-05-06T02:46:26.587Z,23.67
2023-05-06T02:51:32.862Z,21.65
2023-05-06T02:56:40.187Z,26.35
2023-05-06T03:01:45.339Z,27.30
2023-05-06T03:06:47.034Z,24.58
2023-05-06T03:11:49.202Z,27.10
2023-05-06T03:16:51.863Z,27.10
2023-05-06T03:21:58.718Z,24.20
2023-05-06T03:27:01.735Z,25.13
2023-05-06T03:32:04.335Z,28.80
2023-05-06T03:37:10.451Z,25.35
2023-05-06T03:42:17.325Z,24.17
2023-05-06T03:47:20.726Z,21.90
2023-05-06T03:52:22.907Z,27.95
2023-05-06T03:57:29.775Z,24.60
2023-05-06T04:02:36.895Z,32.00
2023-05-06T04:07:41.365Z,20.85
2023-05-06T04:12:43.280Z,30.77
2023-05-06T04:17:47.667Z,33.88
2023-05-06T04:22:52.204Z,36.58
2023-05-06T04:27:55.799Z,28.00
2023-05-06T04:33:04.134Z,27.13
2023-05-06T04:38:09.266Z,28.80
2023-05-06T04:43:13.326Z,21.95
2023-05-06T04:48:19.275Z,27.98
2023-05-06T04:53:21.520Z,34.95
2023-05-06T04:58:25.762Z,32.95
2023-05-06T05:03:28.247Z,31.73
2023-05-06T05:08:36.607Z,31.73
2023-05-06T05:13:44.520Z,26.88
2023-05-06T05:18:46.342Z,26.33
2023-05-06T05:23:55.311Z,21.75
2023-05-06T05:28:57.282Z,22.40
2023-05-06T05:34:01.969Z,24.73
2023-05-06T05:39:06.466Z,24.83
2023-05-06T05:44:16.337Z,25.10
2023-05-06T05:49:20.682Z,25.00
2023-05-06T05:54:25.948Z,28.77
2023-05-06T05:59:31.698Z,28.60
2023-05-06T06:04:39.319Z,35.40
2023-05-06T06:09:41.807Z,34.22
2023-05-06T06:14:47.993Z,28.35
2023-05-06T06:19:57.298Z,31.40
2023-05-06T06:24:59.340Z,28.67
2023-05-06T06:30:01.126Z,29.30
2023-05-06T06:35:03.558Z,26.27
2023-05-06T06:40:08.351Z,26.20
2023-05-06T06:45:11.021Z,21.25
2023-05-06T06:50:13.021Z,23.35
2023-05-06T06:55:16.925Z,21.35
2023-05-06T07:00:18.812Z,19.23
2023-05-06T07:05:23.048Z,19.58
2023-05-06T07:10:24.924Z,16.80
2023-05-06T07:15:31.672Z,14.68
2023-05-06T07:20:33.400Z,17.70
2023-05-06T07:25:37.574Z,18.85
2023-05-06T07:30:41.851Z,21.10
2023-05-06T07:35:48.600Z,20.45
2023-05-06T07:40:51.543Z,20.88
2023-05-06T07:45:58.904Z,26.10
2023-05-06T07:51:00.962Z,23.65
2023-05-06T07:56:03.924Z,21.33
2023-05-06T08:01:06.225Z,23.08
2023-05-06T08:06:08.523Z,21.58
2023-05-06T08:11:12.574Z,23.95
2023-05-06T08:16:14.406Z,21.08
2023-05-06T08:21:17.989Z,22.50
2023-05-06T08:26:22.186Z,27.45
2023-05-06T08:31:28.951Z,24.45
2023-05-06T08:36:35.271Z,20.80
2023-05-06T08:41:40.463Z,24.08
2023-05-06T08:46:46.343Z,27.83
2023-05-06T08:51:50.719Z,26.17
2023-05-06T08:56:53.383Z,19.42
2023-05-06T09:01:55.241Z,19.20
2023-05-06T09:07:02.919Z,17.05
2023-05-06T09:12:12.281Z,15.60
2023-05-06T09:17:24.106Z,17.15
2023-05-06T09:22:30.987Z,13.27
2023-05-06T09:27:42.186Z,17.08
2023-05-06T09:32:44.168Z,17.30
2023-05-06T09:37:45.956Z,15.23
2023-05-06T09:42:47.845Z,13.98
2023-05-06T09:47:53.813Z,17.30
2023-05-06T09:52:56.519Z,12.90
2023-05-06T09:58:00.505Z,14.68
2023-05-06T10:03:05.880Z,11.85
2023-05-06T10:08:08.633Z,11.55
2023-05-06T10:13:10.644Z,12.35
2023-05-06T10:18:13.608Z,13.48
2023-05-06T10:23:32.534Z,13.95
2023-05-06T10:28:39.969Z,11.80
2023-05-06T10:33:45.322Z,12.25
2023-05-06T10:38:54.760Z,10.00
2023-05-06T10:43:57.350Z,12.63
2023-05-06T10:49:13.913Z,10.98
2023-05-06T10:54:21.424Z,12.10
2023-05-06T10:59:28.580Z,12.32
2023-05-06T11:04:31.405Z,15.52
2023-05-06T11:09:33.181Z,17.20
2023-05-06T11:14:38.802Z,14.82
2023-05-06T11:19:40.590Z,13.77
2023-05-06T11:24:44.646Z,12.00
2023-05-06T11:29:46.475Z,12.07
2023-05-06T11:34:48.217Z,15.85
2023-05-06T11:39:52.213Z,13.25
2023-05-06T11:44:56.716Z,14.80
2023-05-06T11:49:59.131Z,13.43
2023-05-06T11:55:00.920Z,14.02
2023-05-06T12:00:04.894Z,12.82
2023-05-06T12:05:13.797Z,12.10
2023-05-06T12:10:17.230Z,14.68
2023-05-06T12:15:19.360Z,11.30
2023-05-06T12:20:21.510Z,11.13
2023-05-06T12:25:23.358Z,11.07
2023-05-06T12:30:32.270Z,13.65
2023-05-06T12:35:34.098Z,11.82
2023-05-06T12:40:38.427Z,11.32
2023-05-06T12:45:42.542Z,12.05
2023-05-06T12:50:45.252Z,11.43
2023-05-06T12:55:46.933Z,9.43
2023-05-06T13:00:48.985Z,9.90
2023-05-06T13:05:53.047Z,8.93
2023-05-06T13:10:54.784Z,8.32
2023-05-06T13:15:58.834Z,7.28
2023-05-06T13:21:00.837Z,8.00
2023-05-06T13:26:06.079Z,7.80
2023-05-06T13:31:13.282Z,9.45
2023-05-06T13:36:17.698Z,9.48
2023-05-06T13:41:19.777Z,9.18
2023-05-06T13:46:23.843Z,8.50
2023-05-06T13:51:30.579Z,9.07
2023-05-06T13:56:32.543Z,9.65
2023-05-06T14:01:34.355Z,11.35
2023-05-06T14:06:36.191Z,10.93
2023-05-06T14:11:42.595Z,9.15
2023-05-06T14:16:46.871Z,8.32
2023-05-06T14:21:48.657Z,7.32
2023-05-06T14:26:50.471Z,11.00
2023-05-06T14:31:54.318Z,12.30
2023-05-06T14:36:56.092Z,19.67
2023-05-06T14:41:58.135Z,15.80
2023-05-06T14:47:02.439Z,11.02
2023-05-06T14:52:04.250Z,13.48
2023-05-06T14:57:06.225Z,12.65
2023-05-06T15:02:11.216Z,12.52
2023-05-06T15:07:13.211Z,9.50
2023-05-06T15:12:17.497Z,10.80
2023-05-06T15:17:19.249Z,11.27
2023-05-06T15:22:23.516Z,10.77
2023-05-06T15:27:27.614Z,11.02
2023-05-06T15:32:29.364Z,12.07
2023-05-06T15:37:35.996Z,10.88
2023-05-06T15:42:38.377Z,10.00
2023-05-06T15:47:40.103Z,12.13
2023-05-06T15:52:45.078Z,10.73
2023-05-06T15:57:46.798Z,9.35
2023-05-06T16:02:50.760Z,11.82
2023-05-06T16:07:55.828Z,11.07
2023-05-06T16:12:57.627Z,10.68
2023-05-06T16:17:59.442Z,13.98
2023-05-06T16:23:03.568Z,12.90
2023-05-06T16:28:08.986Z,11.30
2023-05-06T16:33:12.035Z,11.60
2023-05-06T16:38:13.756Z,13.27
2023-05-06T16:43:15.537Z,13.80
2023-05-06T16:48:17.499Z,14.80
2023-05-06T16:53:19.424Z,13.20
2023-05-06T16:58:21.343Z,18.20
2023-05-06T17:03:23.132Z,15.63
2023-05-06T17:08:26.858Z,14.27
2023-05-06T17:13:31.099Z,16.52
2023-05-06T17:18:33.002Z,14.70
2023-05-06T17:23:37.029Z,17.48
2023-05-06T17:28:38.864Z,21.90
2023-05-06T17:33:40.808Z,19.25
2023-05-06T17:38:43.264Z,20.02
2023-05-06T17:43:47.467Z,19.70
2023-05-06T17:48:49.332Z,21.10
2023-05-06T17:53:51.625Z,19.60
2023-05-06T17:58:56.586Z,24.48
2023-05-06T18:03:58.792Z,24.77
2023-05-06T18:09:03.185Z,21.63
2023-05-06T18:14:05.626Z,22.10
2023-05-06T18:19:07.413Z,18.20
2023-05-06T18:24:15.824Z,19.63
2023-05-06T18:29:22.918Z,20.30
2023-05-06T18:34:26.717Z,21.30
2023-05-06T18:39:28.466Z,20.67
2023-05-06T18:44:32.482Z,17.77
2023-05-06T18:49:36.822Z,18.92
2023-05-06T18:54:39.600Z,17.48
2023-05-06T18:59:41.698Z,17.60
2023-05-06T19:04:43.810Z,19.50
2023-05-06T19:09:45.913Z,18.38
2023-05-06T19:14:50.046Z,18.73
2023-05-06T19:19:51.880Z,17.88
2023-05-06T19:24:55.878Z,16.88
2023-05-06T19:29:59.781Z,22.60
2023-05-06T19:35:08.120Z,23.58
2023-05-06T19:40:13.041Z,24.65
2023-05-06T19:45:18.940Z,28.17
2023-05-06T19:50:23.522Z,25.85
2023-05-06T19:55:27.621Z,23.35
2023-05-06T20:00:30.366Z,26.60
2023-05-06T20:05:32.332Z,24.20
2023-05-06T20:10:37.118Z,21.67
2023-05-06T20:15:38.995Z,21.70
2023-05-06T20:20:40.976Z,18.48
2023-05-06T20:25:42.790Z,16.92
2023-05-06T20:30:44.646Z,17.92
2023-05-06T20:35:48.075Z,17.70
2023-05-06T20:40:50.013Z,19.02
2023-05-06T20:45:51.781Z,17.77
2023-05-06T20:50:54.217Z,17.98
2023-05-06T20:55:55.984Z,14.90
2023-05-06T21:00:57.756Z,19.52
2023-05-06T21:05:59.492Z,15.98
2023-05-06T21:11:01.484Z,21.75
2023-05-06T21:16:03.596Z,17.33
2023-05-06T21:21:05.335Z,19.05
2023-05-06T21:26:07.368Z,21.17
2023-05-06T21:31:09.145Z,21.92
2023-05-06T21:36:10.986Z,22.02
2023-05-06T21:41:14.950Z,20.25
2023-05-06T21:46:16.707Z,22.08
2023-05-06T21:51:18.454Z,19.58
2023-05-06T21:56:20.268Z,26.35
2023-05-06T22:01:22.902Z,27.52
2023-05-06T22:06:24.693Z,25.17
2023-05-06T22:11:26.386Z,24.23
2023-05-06T22:16:31.415Z,24.42
2023-05-06T22:21:33.933Z,23.70
2023-05-06T22:26:35.758Z,20.08
2023-05-06T22:31:37.588Z,24.33
2023-05-06T22:36:41.480Z,22.67
2023-05-06T22:41:45.627Z,24.95
2023-05-06T22:46:51.920Z,25.08
2023-05-06T22:51:53.749Z,23.23
2023-05-06T22:56:55.557Z,27.45
2023-05-06T23:01:57.355Z,30.80
2023-05-06T23:07:01.396Z,25.95
2023-05-06T23:12:06.204Z,24.83
2023-05-06T23:17:10.024Z,29.08
2023-05-06T23:22:11.816Z,25.80
2023-05-06T23:27:13.518Z,25.45
2023-05-06T23:32:15.245Z,26.58
2023-05-06T23:37:17.583Z,24.00
2023-05-06T23:42:22.779Z,22.30
2023-05-06T23:47:24.599Z,22.30
2023-05-06T23:52:26.811Z,25.05
2023-05-06T23:57:34.574Z,23.02
